Time;durP1;ratioP1;P1;durP2;ratioP2;P2;SDS_P1;SDS_P2;PMS_P1;PMS_P2;Temp;Humidity;BMP_temperature;BMP_pressure;BME280_temperature;BME280_humidity;BME280_pressure;Samples;Min_cycle;Max_cycle;Signal;HPM_P1;HPM_P2
2022/02/12 00:00:12;;;;;;;4.70;1.30;;;;;;;;;;5074201;28;20021;-49
2022/02/12 00:02:38;;;;;;;1.80;1.13;;;;;;;;;;5073502;28;20016;-55
2022/02/12 00:05:04;;;;;;;3.15;1.35;;;;;;;;;;5073790;28;20024;-48
2022/02/12 00:07:30;;;;;;;1.75;1.20;;;;;;;;;;5073759;28;20111;-48
2022/02/12 00:09:56;;;;;;;2.38;1.00;;;;;;;;;;5055475;28;20687;-49
2022/02/12 00:12:22;;;;;;;3.08;1.20;;;;;;;;;;5073845;28;20032;-51
2022/02/12 00:14:48;;;;;;;1.70;1.25;;;;;;;;;;5072733;28;20452;-48
2022/02/12 00:17:15;;;;;;;2.10;1.05;;;;;;;;;;5073735;28;20025;-50
2022/02/12 00:19:41;;;;;;;1.20;0.88;;;;;;;;;;5072881;28;20458;-52
2022/02/12 00:22:07;;;;;;;1.38;0.93;;;;;;;;;;5073566;28;20032;-48
2022/02/12 00:24:33;;;;;;;2.28;1.02;;;;;;;;;;5053989;28;20025;-49
2022/02/12 00:26:59;;;;;;;2.00;0.90;;;;;;;;;;5071171;28;20488;-49
2022/02/12 00:29:24;;;;;;;2.42;0.90;;;;;;;;;;5073853;28;20110;-48
2022/02/12 00:31:50;;;;;;;2.28;1.30;;;;;;;;;;5072265;28;20064;-52
2022/02/12 00:34:16;;;;;;;2.80;1.40;;;;;;;;;;5053774;28;20107;-51
2022/02/12 00:36:42;;;;;;;2.85;1.10;;;;;;;;;;5068425;28;20035;-49
2022/02/12 00:39:13;;;;;;;1.20;0.80;;;;;;;;;;5073365;28;20448;-48
2022/02/12 00:41:39;;;;;;;2.85;1.17;;;;;;;;;;5054896;28;20025;-54
2022/02/12 00:44:05;;;;;;;2.28;1.02;;;;;;;;;;5072829;28;20121;-47
2022/02/12 00:46:31;;;;;;;3.25;1.38;;;;;;;;;;5072414;28;20040;-48
2022/02/12 00:48:57;;;;;;;1.98;1.23;;;;;;;;;;5072477;28;20043;-51
2022/02/12 00:51:23;;;;;;;1.60;1.00;;;;;;;;;;5072973;28;20024;-51
2022/02/12 00:53:49;;;;;;;1.65;1.00;;;;;;;;;;5072530;28;20036;-49
2022/02/12 00:56:15;;;;;;;1.92;1.20;;;;;;;;;;5072812;28;20466;-49
2022/02/12 00:58:41;;;;;;;2.50;1.20;;;;;;;;;;5071413;28;20032;-51
2022/02/12 01:01:07;;;;;;;2.22;1.30;;;;;;;;;;5073215;28;20024;-50
2022/02/12 01:03:34;;;;;;;2.78;1.48;;;;;;;;;;5073605;28;20052;-51
2022/02/12 01:06:00;;;;;;;2.83;1.30;;;;;;;;;;5070981;28;20019;-49
2022/02/12 01:08:26;;;;;;;3.22;1.55;;;;;;;;;;5072697;28;20028;-47
2022/02/12 01:10:52;;;;;;;3.50;1.48;;;;;;;;;;5071660;28;20026;-49
2022/02/12 01:13:18;;;;;;;1.42;1.05;;;;;;;;;;5072707;28;20036;-48
2022/02/12 01:15:44;;;;;;;2.80;1.30;;;;;;;;;;5072003;28;20031;-49
2022/02/12 01:18:11;;;;;;;1.92;1.13;;;;;;;;;;5072240;28;20035;-49
2022/02/12 01:20:39;;;;;;;1.88;1.10;;;;;;;;;;5072542;28;20033;-51
2022/02/12 01:23:05;;;;;;;1.92;1.25;;;;;;;;;;5072377;28;20024;-48
2022/02/12 01:25:31;;;;;;;2.13;0.93;;;;;;;;;;5072448;28;20025;-48
2022/02/12 01:27:57;;;;;;;2.30;1.20;;;;;;;;;;5071745;28;20377;-48
2022/02/12 01:30:23;;;;;;;2.28;1.25;;;;;;;;;;5071763;28;20037;-49
2022/02/12 01:32:49;;;;;;;2.80;1.20;;;;;;;;;;5070543;28;20439;-49
2022/02/12 01:35:16;;;;;;;2.28;1.05;;;;;;;;;;5065216;28;20103;-49
2022/02/12 01:37:42;;;;;;;2.45;1.50;;;;;;;;;;5071086;28;20128;-54
2022/02/12 01:40:09;;;;;;;1.77;1.50;;;;;;;;;;5072223;28;20095;-49
2022/02/12 01:42:35;;;;;;;3.03;1.10;;;;;;;;;;5072346;28;20103;-48
2022/02/12 01:45:02;;;;;;;2.47;1.20;;;;;;;;;;5071238;28;20024;-50
2022/02/12 01:47:29;;;;;;;4.05;1.90;;;;;;;;;;5071990;28;20457;-50
2022/02/12 01:49:55;;;;;;;1.77;1.20;;;;;;;;;;5071552;28;20104;-48
2022/02/12 01:52:22;;;;;;;2.75;0.93;;;;;;;;;;5071853;28;20032;-50
2022/02/12 01:54:49;;;;;;;3.30;0.90;;;;;;;;;;5071188;28;20056;-51
2022/02/12 01:57:15;;;;;;;2.70;1.40;;;;;;;;;;5072169;28;20044;-49
2022/02/12 01:59:42;;;;;;;2.97;1.92;;;;;;;;;;5071404;28;20057;-54
2022/02/12 02:02:08;;;;;;;1.77;1.10;;;;;;;;;;5071629;28;20032;-48
2022/02/12 02:04:35;;;;;;;3.80;1.55;;;;;;;;;;5070860;28;20016;-48
2022/02/12 02:07:01;;;;;;;2.72;1.48;;;;;;;;;;5071042;28;20032;-50
2022/02/12 02:09:30;;;;;;;2.92;1.30;;;;;;;;;;5071476;28;20035;-52
2022/02/12 02:11:56;;;;;;;2.78;1.58;;;;;;;;;;5070995;28;20024;-48
2022/02/12 02:14:35;;;;;;;2.00;1.40;;;;;;;;;;5071539;28;20103;-48
2022/02/12 02:17:01;;;;;;;1.70;1.20;;;;;;;;;;5070994;28;20107;-49
2022/02/12 02:19:30;;;;;;;2.20;1.20;;;;;;;;;;5071552;28;20499;-48
2022/02/12 02:21:56;;;;;;;1.63;1.17;;;;;;;;;;5070601;28;20381;-47
2022/02/12 02:24:22;;;;;;;3.28;1.50;;;;;;;;;;5071584;28;20056;-47
2022/02/12 02:26:48;;;;;;;3.85;1.63;;;;;;;;;;5071258;28;20107;-48
2022/02/12 02:29:15;;;;;;;2.80;1.40;;;;;;;;;;5071505;28;20138;-49
2022/02/12 02:31:41;;;;;;;2.13;1.45;;;;;;;;;;5071646;28;20474;-55
2022/02/12 02:34:10;;;;;;;2.03;1.10;;;;;;;;;;5070788;28;20086;-48
2022/02/12 02:36:36;;;;;;;1.75;1.20;;;;;;;;;;5054002;28;20032;-52
2022/02/12 02:39:03;;;;;;;2.50;1.10;;;;;;;;;;5090885;28;20699;-49
2022/02/12 02:41:29;;;;;;;3.25;1.10;;;;;;;;;;5091726;28;20111;-52
2022/02/12 02:43:55;;;;;;;2.60;1.30;;;;;;;;;;5090879;28;20096;-49
2022/02/12 02:46:21;;;;;;;1.63;1.20;;;;;;;;;;5091576;28;20039;-49
2022/02/12 02:48:47;;;;;;;1.45;1.00;;;;;;;;;;5090433;28;20032;-50
2022/02/12 02:56:43;;;;;;;2.75;1.40;;;;;;;;;;5071229;28;20031;-54
2022/02/12 02:59:09;;;;;;;1.95;1.73;;;;;;;;;;5071221;28;20048;-49
2022/02/12 03:01:35;;;;;;;2.13;1.30;;;;;;;;;;5091577;28;20024;-50
2022/02/12 03:04:02;;;;;;;1.75;1.40;;;;;;;;;;5090226;28;20788;-48
2022/02/12 03:06:28;;;;;;;1.73;1.20;;;;;;;;;;5091525;28;20445;-48
2022/02/12 03:08:54;;;;;;;2.47;1.20;;;;;;;;;;5090633;28;20023;-49
2022/02/12 03:11:21;;;;;;;2.17;1.27;;;;;;;;;;5091477;28;20036;-48
2022/02/12 03:13:48;;;;;;;3.92;1.30;;;;;;;;;;5090791;28;20435;-51
2022/02/12 03:16:14;;;;;;;2.40;1.30;;;;;;;;;;5091312;28;20078;-49
2022/02/12 03:18:41;;;;;;;2.38;1.05;;;;;;;;;;5091526;28;20028;-50
2022/02/12 03:21:07;;;;;;;2.40;1.42;;;;;;;;;;5091376;28;20032;-50
2022/02/12 03:23:34;;;;;;;3.10;1.27;;;;;;;;;;5094836;28;20377;-52
2022/02/12 03:26:00;;;;;;;1.20;0.75;;;;;;;;;;5093276;28;20430;-51
2022/02/12 03:28:26;;;;;;;2.20;1.10;;;;;;;;;;5095049;28;20465;-48
2022/02/12 03:30:52;;;;;;;1.92;1.20;;;;;;;;;;5093734;28;20452;-51
2022/02/12 03:33:18;;;;;;;2.45;1.02;;;;;;;;;;5095141;28;20420;-52
2022/02/12 03:35:46;;;;;;;1.58;1.20;;;;;;;;;;5094290;28;20380;-53
2022/02/12 03:38:19;;;;;;;2.20;1.42;;;;;;;;;;5080717;28;20048;-52
2022/02/12 03:40:46;;;;;;;2.15;1.20;;;;;;;;;;5056181;28;20021;-54
2022/02/12 03:43:12;;;;;;;1.90;1.15;;;;;;;;;;5074885;28;20530;-48
2022/02/12 03:45:39;;;;;;;1.45;1.27;;;;;;;;;;5074264;28;20111;-53
2022/02/12 03:48:05;;;;;;;2.42;1.52;;;;;;;;;;5073269;28;20016;-51
2022/02/12 03:50:32;;;;;;;4.93;1.80;;;;;;;;;;5073933;28;20054;-49
2022/02/12 03:52:59;;;;;;;1.77;1.10;;;;;;;;;;5073629;28;20021;-52
2022/02/12 03:55:25;;;;;;;2.40;1.63;;;;;;;;;;5073976;28;20037;-51
2022/02/12 03:57:51;;;;;;;2.83;1.50;;;;;;;;;;5073398;28;20064;-51
2022/02/12 04:00:17;;;;;;;2.55;1.30;;;;;;;;;;5074139;28;20522;-52
2022/02/12 04:02:44;;;;;;;2.70;1.52;;;;;;;;;;5074120;28;20427;-52
2022/02/12 04:05:11;;;;;;;2.22;1.30;;;;;;;;;;5073494;28;20499;-48
2022/02/12 04:07:40;;;;;;;2.30;1.60;;;;;;;;;;5074167;28;20020;-49
2022/02/12 04:10:06;;;;;;;2.03;1.30;;;;;;;;;;5073061;28;20024;-50
2022/02/12 04:12:32;;;;;;;1.35;1.00;;;;;;;;;;5056250;28;20369;-49
2022/02/12 04:14:58;;;;;;;2.17;1.58;;;;;;;;;;5072782;28;20108;-48
2022/02/12 04:17:24;;;;;;;2.17;1.38;;;;;;;;;;5074131;28;20473;-48
2022/02/12 04:19:53;;;;;;;3.50;2.10;;;;;;;;;;5072703;28;20086;-49
2022/02/12 04:22:20;;;;;;;2.30;1.33;;;;;;;;;;5073831;28;20055;-48
2022/02/12 04:24:46;;;;;;;2.25;1.73;;;;;;;;;;5072520;28;20024;-53
2022/02/12 04:27:12;;;;;;;2.03;1.15;;;;;;;;;;5055410;28;20500;-48
2022/02/12 04:29:38;;;;;;;2.45;1.40;;;;;;;;;;5073607;28;20028;-50
2022/02/12 04:32:04;;;;;;;2.40;1.83;;;;;;;;;;5072634;28;20790;-50
2022/02/12 04:34:30;;;;;;;3.00;1.70;;;;;;;;;;5073159;28;20029;-48
2022/02/12 04:36:56;;;;;;;2.60;1.73;;;;;;;;;;5072448;28;20055;-48
2022/02/12 04:39:23;;;;;;;4.10;2.05;;;;;;;;;;5055710;28;20339;-48
2022/02/12 04:41:49;;;;;;;2.08;1.48;;;;;;;;;;5072873;28;20488;-55
2022/02/12 04:44:15;;;;;;;2.60;1.83;;;;;;;;;;5073143;28;20031;-47
2022/02/12 04:46:41;;;;;;;2.40;1.50;;;;;;;;;;5073201;28;20107;-50
2022/02/12 04:49:07;;;;;;;2.78;1.83;;;;;;;;;;5072012;28;20618;-48
2022/02/12 04:51:33;;;;;;;1.55;1.13;;;;;;;;;;5073106;28;20028;-48
2022/02/12 04:53:59;;;;;;;2.58;1.65;;;;;;;;;;5071783;28;20028;-48
2022/02/12 04:56:25;;;;;;;2.58;1.52;;;;;;;;;;5071918;28;20020;-55
2022/02/12 04:58:51;;;;;;;3.67;1.77;;;;;;;;;;5071850;28;20021;-48
2022/02/12 05:01:20;;;;;;;2.47;1.92;;;;;;;;;;5072956;28;20058;-51
2022/02/12 05:03:55;;;;;;;3.17;2.03;;;;;;;;;;5072644;28;20386;-54
2022/02/12 05:06:22;;;;;;;1.95;1.40;;;;;;;;;;5053235;28;20025;-49
2022/02/12 05:08:48;;;;;;;2.35;1.48;;;;;;;;;;5052523;28;20021;-55
2022/02/12 05:11:14;;;;;;;2.08;1.60;;;;;;;;;;5071627;28;20400;-48
2022/02/12 05:13:41;;;;;;;3.13;1.45;;;;;;;;;;5072632;28;20033;-48
2022/02/12 05:16:07;;;;;;;2.00;1.50;;;;;;;;;;5072092;28;20036;-51
2022/02/12 05:18:33;;;;;;;2.72;1.92;;;;;;;;;;5072890;28;20040;-51
2022/02/12 05:20:59;;;;;;;1.80;1.40;;;;;;;;;;5071858;28;20031;-48
2022/02/12 05:23:25;;;;;;;2.30;1.80;;;;;;;;;;5072583;28;20078;-48
2022/02/12 05:25:51;;;;;;;3.42;1.65;;;;;;;;;;5071230;28;20557;-50
2022/02/12 05:28:17;;;;;;;2.08;1.33;;;;;;;;;;5072444;28;20099;-49
2022/02/12 05:30:43;;;;;;;2.30;1.63;;;;;;;;;;5072638;28;20025;-50
2022/02/12 05:33:10;;;;;;;2.75;1.73;;;;;;;;;;5070856;28;20021;-53
2022/02/12 05:35:36;;;;;;;2.85;1.98;;;;;;;;;;5072504;28;20108;-48
2022/02/12 05:38:02;;;;;;;2.22;1.58;;;;;;;;;;5071380;28;20055;-51
2022/02/12 05:40:28;;;;;;;3.30;1.60;;;;;;;;;;5071575;28;20416;-50
2022/02/12 05:42:54;;;;;;;1.80;1.42;;;;;;;;;;5071219;28;20477;-49
2022/02/12 05:45:21;;;;;;;1.55;1.38;;;;;;;;;;5071504;28;20071;-50
2022/02/12 05:47:47;;;;;;;2.67;1.52;;;;;;;;;;5072108;28;20138;-50
2022/02/12 05:50:13;;;;;;;2.30;1.55;;;;;;;;;;5071771;28;20497;-49
2022/02/12 05:52:39;;;;;;;2.97;1.77;;;;;;;;;;5071714;28;20029;-48
2022/02/12 05:55:05;;;;;;;2.17;1.50;;;;;;;;;;5071224;28;20033;-48
2022/02/12 05:57:31;;;;;;;2.00;1.63;;;;;;;;;;5072056;28;20078;-48
2022/02/12 05:59:57;;;;;;;2.67;1.73;;;;;;;;;;5071445;28;20028;-49
2022/02/12 06:02:23;;;;;;;2.47;1.70;;;;;;;;;;5071914;28;20116;-50
2022/02/12 06:04:49;;;;;;;1.90;1.75;;;;;;;;;;5071609;28;20091;-54
2022/02/12 06:07:15;;;;;;;2.03;1.60;;;;;;;;;;5071357;28;20016;-49
2022/02/12 06:09:41;;;;;;;2.60;1.70;;;;;;;;;;5071897;28;20024;-50
2022/02/12 06:12:07;;;;;;;2.38;1.67;;;;;;;;;;5070892;28;20024;-49
2022/02/12 06:14:33;;;;;;;3.13;1.63;;;;;;;;;;5071873;28;20025;-49
2022/02/12 06:17:00;;;;;;;4.53;2.00;;;;;;;;;;5070925;28;20042;-49
2022/02/12 06:19:26;;;;;;;2.35;1.60;;;;;;;;;;5071604;28;20059;-49
2022/02/12 06:21:52;;;;;;;1.45;1.33;;;;;;;;;;5071277;28;20021;-55
2022/02/12 06:24:19;;;;;;;3.05;2.35;;;;;;;;;;5071685;28;20024;-48
2022/02/12 06:26:48;;;;;;;2.25;1.40;;;;;;;;;;5051838;28;20013;-49
2022/02/12 06:29:15;;;;;;;2.92;1.50;;;;;;;;;;5051134;28;20528;-49
2022/02/12 06:31:42;;;;;;;2.70;2.17;;;;;;;;;;5053517;28;20517;-48
2022/02/12 06:34:08;;;;;;;1.98;1.33;;;;;;;;;;5070720;28;20021;-48
2022/02/12 06:36:33;;;;;;;2.10;1.35;;;;;;;;;;5071257;28;20381;-49
2022/02/12 06:38:59;;;;;;;2.22;1.40;;;;;;;;;;5070053;28;20025;-48
2022/02/12 06:41:25;;;;;;;3.22;1.67;;;;;;;;;;5069975;28;20473;-50
2022/02/12 06:43:51;;;;;;;1.85;1.65;;;;;;;;;;5069649;28;20035;-55
2022/02/12 06:46:17;;;;;;;2.22;1.60;;;;;;;;;;5069959;28;20444;-51
2022/02/12 06:48:45;;;;;;;2.55;1.70;;;;;;;;;;5067665;28;20025;-49
2022/02/12 06:51:14;;;;;;;2.97;1.73;;;;;;;;;;5069448;28;20021;-48
2022/02/12 06:53:40;;;;;;;2.10;1.42;;;;;;;;;;5070405;28;20036;-48
2022/02/12 06:56:06;;;;;;;2.75;1.85;;;;;;;;;;5070320;28;20069;-49
2022/02/12 06:58:33;;;;;;;2.13;1.55;;;;;;;;;;5074105;28;20032;-50
2022/02/12 07:00:59;;;;;;;2.25;1.50;;;;;;;;;;5073340;28;20032;-51
2022/02/12 07:03:25;;;;;;;4.68;2.30;;;;;;;;;;5075335;28;20023;-50
2022/02/12 07:05:51;;;;;;;2.40;1.83;;;;;;;;;;5073759;28;20020;-49
2022/02/12 07:08:17;;;;;;;2.47;1.73;;;;;;;;;;5074248;28;20470;-51
2022/02/12 07:10:43;;;;;;;2.30;1.48;;;;;;;;;;5073929;28;20482;-49
2022/02/12 07:13:11;;;;;;;3.60;1.95;;;;;;;;;;5073431;28;20052;-48
2022/02/12 07:15:38;;;;;;;2.85;1.60;;;;;;;;;;5073753;28;20086;-51
2022/02/12 07:18:04;;;;;;;2.20;1.67;;;;;;;;;;5070726;28;20395;-49
2022/02/12 07:20:30;;;;;;;3.50;2.08;;;;;;;;;;5074225;28;20029;-48
2022/02/12 07:22:56;;;;;;;4.88;1.77;;;;;;;;;;5073558;28;20077;-50
2022/02/12 07:25:22;;;;;;;3.28;1.90;;;;;;;;;;5073468;28;20476;-53
2022/02/12 07:27:48;;;;;;;3.33;1.80;;;;;;;;;;5073377;28;20469;-48
2022/02/12 07:30:15;;;;;;;2.25;1.95;;;;;;;;;;5072681;28;20078;-52
2022/02/12 07:32:42;;;;;;;2.15;1.65;;;;;;;;;;5073446;28;20417;-50
2022/02/12 07:35:09;;;;;;;2.47;1.80;;;;;;;;;;5072472;28;20044;-48
2022/02/12 07:37:37;;;;;;;2.20;1.80;;;;;;;;;;5067657;28;20044;-52
2022/02/12 07:40:03;;;;;;;1.95;1.40;;;;;;;;;;5063577;28;20053;-50
2022/02/12 07:42:29;;;;;;;4.13;2.13;;;;;;;;;;5061547;28;20087;-51
2022/02/12 07:44:56;;;;;;;2.47;1.77;;;;;;;;;;5063238;28;20021;-52
2022/02/12 07:47:22;;;;;;;2.88;1.73;;;;;;;;;;5067136;28;20024;-48
2022/02/12 07:49:48;;;;;;;5.25;2.17;;;;;;;;;;5065573;28;20112;-48
2022/02/12 07:52:14;;;;;;;1.20;0.98;;;;;;;;;;5062633;28;20786;-49
2022/02/12 07:54:40;;;;;;;1.98;1.58;;;;;;;;;;5061920;28;20017;-48
2022/02/12 07:57:06;;;;;;;2.25;1.67;;;;;;;;;;5065418;28;20016;-52
2022/02/12 07:59:32;;;;;;;2.38;1.70;;;;;;;;;;5063138;28;20028;-51
2022/02/12 08:01:58;;;;;;;4.00;2.08;;;;;;;;;;5061239;28;20029;-49
2022/02/12 08:04:24;;;;;;;2.25;1.65;;;;;;;;;;5063953;28;20036;-48
2022/02/12 08:09:35;;;;;;;2.17;1.95;;;;;;;;;;5071206;28;20032;-48
2022/02/12 08:12:13;;;;;;;3.30;1.88;;;;;;;;;;5067852;28;20389;-49
2022/02/12 08:14:40;;;;;;;2.80;1.80;;;;;;;;;;5063051;28;20082;-50
2022/02/12 08:17:06;;;;;;;3.03;2.03;;;;;;;;;;5063655;28;20032;-49
2022/02/12 08:19:32;;;;;;;3.67;1.60;;;;;;;;;;5063735;28;20029;-48
2022/02/12 08:21:58;;;;;;;2.08;1.88;;;;;;;;;;5069309;28;20036;-49
2022/02/12 08:24:24;;;;;;;2.38;1.75;;;;;;;;;;5065076;28;20377;-50
2022/02/12 08:26:50;;;;;;;4.00;1.98;;;;;;;;;;5062441;28;20024;-56
2022/02/12 08:29:16;;;;;;;3.75;2.45;;;;;;;;;;5063189;28;20025;-51
2022/02/12 08:31:43;;;;;;;3.20;2.15;;;;;;;;;;5064894;28;20139;-48
2022/02/12 08:34:09;;;;;;;2.60;1.95;;;;;;;;;;5069835;28;20032;-52
2022/02/12 08:36:35;;;;;;;2.40;2.10;;;;;;;;;;5073187;28;20469;-51
2022/02/12 08:39:01;;;;;;;3.80;1.98;;;;;;;;;;5073338;28;20017;-53
2022/02/12 08:41:27;;;;;;;2.78;1.90;;;;;;;;;;5073128;28;20102;-52
2022/02/12 08:43:53;;;;;;;2.63;1.80;;;;;;;;;;5072912;28;20024;-55
2022/02/12 08:46:19;;;;;;;2.78;1.77;;;;;;;;;;5073915;28;20104;-53
2022/02/12 08:48:45;;;;;;;4.43;2.08;;;;;;;;;;5069908;28;20452;-53
2022/02/12 08:51:11;;;;;;;3.45;2.05;;;;;;;;;;5060001;28;20066;-52
2022/02/12 08:53:37;;;;;;;2.47;1.63;;;;;;;;;;5073179;28;20029;-53
2022/02/12 08:56:04;;;;;;;3.13;1.67;;;;;;;;;;5072572;28;20074;-50
2022/02/12 08:58:30;;;;;;;3.63;2.38;;;;;;;;;;5072766;28;20035;-50
2022/02/12 09:00:56;;;;;;;2.63;2.42;;;;;;;;;;5071998;28;20020;-54
2022/02/12 09:03:23;;;;;;;3.00;1.58;;;;;;;;;;5055292;28;20051;-49
2022/02/12 09:05:49;;;;;;;3.15;2.17;;;;;;;;;;5072989;28;20023;-49
2022/02/12 09:08:15;;;;;;;2.85;1.83;;;;;;;;;;5072338;28;20679;-52
2022/02/12 09:10:41;;;;;;;2.53;1.85;;;;;;;;;;5072469;28;20020;-51
2022/02/12 09:13:07;;;;;;;4.03;1.65;;;;;;;;;;5072027;28;20029;-51
2022/02/12 09:15:33;;;;;;;4.35;2.47;;;;;;;;;;5072670;28;20027;-53
2022/02/12 09:17:59;;;;;;;3.60;2.15;;;;;;;;;;5071690;28;20123;-50
2022/02/12 09:20:25;;;;;;;2.72;2.05;;;;;;;;;;5072042;28;20381;-50
2022/02/12 09:22:51;;;;;;;3.35;1.80;;;;;;;;;;5072142;28;20414;-51
2022/02/12 09:25:17;;;;;;;2.80;1.73;;;;;;;;;;5071829;28;20100;-51
2022/02/12 09:27:43;;;;;;;3.35;2.00;;;;;;;;;;5072572;28;20100;-50
2022/02/12 09:30:09;;;;;;;5.13;1.98;;;;;;;;;;5071587;28;20098;-52
2022/02/12 09:32:35;;;;;;;2.60;1.70;;;;;;;;;;5069160;28;20033;-50
2022/02/12 09:35:02;;;;;;;2.20;1.83;;;;;;;;;;5071684;28;20060;-49
2022/02/12 09:37:28;;;;;;;2.95;2.17;;;;;;;;;;5072494;28;20147;-50
2022/02/12 09:39:54;;;;;;;2.85;1.83;;;;;;;;;;5072280;28;20382;-51
2022/02/12 09:42:20;;;;;;;2.58;1.65;;;;;;;;;;5052108;28;20029;-52
2022/02/12 09:44:46;;;;;;;2.55;1.90;;;;;;;;;;5072255;28;20444;-49
2022/02/12 09:47:22;;;;;;;3.22;2.15;;;;;;;;;;5053634;28;20024;-52
2022/02/12 09:49:48;;;;;;;3.70;1.52;;;;;;;;;;5072442;28;20028;-54
2022/02/12 09:52:16;;;;;;;5.43;2.35;;;;;;;;;;5071342;28;20025;-52
2022/02/12 09:54:44;;;;;;;7.07;2.00;;;;;;;;;;5071587;28;20029;-51
2022/02/12 09:57:10;;;;;;;2.05;1.75;;;;;;;;;;5071488;28;20028;-54
2022/02/12 09:59:36;;;;;;;7.20;1.77;;;;;;;;;;5071409;28;20024;-49
2022/02/12 10:02:02;;;;;;;3.22;1.65;;;;;;;;;;5071469;28;20103;-54
2022/02/12 10:04:31;;;;;;;3.15;1.83;;;;;;;;;;5074475;28;20373;-51
2022/02/12 10:06:58;;;;;;;2.50;1.65;;;;;;;;;;5071480;28;20369;-58
2022/02/12 10:09:24;;;;;;;7.55;2.35;;;;;;;;;;5071387;28;20025;-49
2022/02/12 10:11:51;;;;;;;3.88;2.03;;;;;;;;;;5070851;28;20058;-52
2022/02/12 10:14:19;;;;;;;4.25;2.10;;;;;;;;;;5070195;28;20028;-55
2022/02/12 10:17:15;;;;;;;4.53;2.30;;;;;;;;;;5071823;28;20023;-54
2022/02/12 10:19:44;;;;;;;5.55;2.83;;;;;;;;;;5054484;28;20433;-52
2022/02/12 10:22:17;;;;;;;8.55;4.55;;;;;;;;;;5070566;28;20062;-49
2022/02/12 10:24:50;;;;;;;17.02;10.15;;;;;;;;;;5072145;28;20024;-50
2022/02/12 10:27:16;;;;;;;14.73;9.82;;;;;;;;;;5071265;28;20086;-50
2022/02/12 10:29:45;;;;;;;16.60;10.75;;;;;;;;;;5071539;28;20021;-52
2022/02/12 10:32:11;;;;;;;21.73;11.88;;;;;;;;;;5070516;28;20024;-54
2022/02/12 10:34:43;;;;;;;18.55;11.07;;;;;;;;;;5071817;28;20063;-50
2022/02/12 10:37:11;;;;;;;16.70;10.02;;;;;;;;;;5076392;28;20044;-50
2022/02/12 10:39:50;;;;;;;13.80;9.35;;;;;;;;;;5091358;28;20465;-51
2022/02/12 10:42:19;;;;;;;14.70;8.63;;;;;;;;;;5090605;28;20469;-50
2022/02/12 10:44:45;;;;;;;19.25;9.15;;;;;;;;;;5091566;28;20028;-55
2022/02/12 10:47:13;;;;;;;14.60;8.80;;;;;;;;;;5090542;28;20509;-53
2022/02/12 10:49:40;;;;;;;19.48;8.60;;;;;;;;;;5096106;28;20028;-52
2022/02/12 10:52:06;;;;;;;14.43;8.52;;;;;;;;;;5091516;28;20024;-49
2022/02/12 10:54:45;;;;;;;13.00;6.45;;;;;;;;;;5092246;28;20062;-51
2022/02/12 10:57:12;;;;;;;11.07;7.22;;;;;;;;;;5091346;28;20031;-55
2022/02/12 10:59:41;;;;;;;14.43;7.43;;;;;;;;;;5091843;28;20099;-53
2022/02/12 11:02:08;;;;;;;13.27;6.38;;;;;;;;;;5091603;28;20104;-50
2022/02/12 11:04:35;;;;;;;12.85;6.53;;;;;;;;;;5092120;28;20023;-54
2022/02/12 11:07:02;;;;;;;13.88;7.07;;;;;;;;;;5091168;28;20028;-54
2022/02/12 11:09:31;;;;;;;9.95;5.95;;;;;;;;;;5091675;28;20016;-54
2022/02/12 11:11:59;;;;;;;10.05;4.50;;;;;;;;;;5091373;28;20028;-51
2022/02/12 11:14:25;;;;;;;14.02;4.72;;;;;;;;;;5090733;28;20105;-61
2022/02/12 11:16:52;;;;;;;9.38;4.63;;;;;;;;;;5091102;28;20031;-57
2022/02/12 11:19:18;;;;;;;24.92;5.80;;;;;;;;;;5090394;28;20373;-54
2022/02/12 11:21:45;;;;;;;9.10;5.13;;;;;;;;;;5091132;28;20031;-54
2022/02/12 11:24:14;;;;;;;12.10;4.78;;;;;;;;;;5090483;28;20369;-57
2022/02/12 11:26:44;;;;;;;8.38;3.28;;;;;;;;;;5091320;28;20030;-57
2022/02/12 11:29:30;;;;;;;5.50;4.13;;;;;;;;;;5090710;28;20020;-57
2022/02/12 11:32:09;;;;;;;6.88;3.78;;;;;;;;;;5090853;28;20032;-57
2022/02/12 11:34:35;;;;;;;4.80;3.25;;;;;;;;;;5091120;28;20369;-57
2022/02/12 11:37:14;;;;;;;8.98;4.22;;;;;;;;;;5085751;28;20056;-58
2022/02/12 11:39:40;;;;;;;7.15;3.75;;;;;;;;;;5070564;28;20024;-59
2022/02/12 11:42:06;;;;;;;4.95;3.08;;;;;;;;;;5071196;28;20081;-58
2022/02/12 11:44:43;;;;;;;7.65;3.78;;;;;;;;;;5074632;28;20024;-57
2022/02/12 11:47:09;;;;;;;9.63;3.60;;;;;;;;;;5073797;28;20031;-58
2022/02/12 11:49:35;;;;;;;4.72;2.75;;;;;;;;;;5074320;28;20420;-57
2022/02/12 11:52:06;;;;;;;5.55;2.47;;;;;;;;;;5073764;28;20028;-59
2022/02/12 11:54:56;;;;;;;4.22;2.88;;;;;;;;;;5074519;28;20082;-57
2022/02/12 11:57:28;;;;;;;5.90;2.30;;;;;;;;;;5073773;28;20039;-57
2022/02/12 11:59:54;;;;;;;;;;;;;;;;;;5074367;28;20021;-58
2022/02/12 12:02:38;;;;;;;4.90;2.55;;;;;;;;;;5073405;28;19930;-57
2022/02/12 12:05:16;;;;;;;7.00;2.85;;;;;;;;;;5073477;28;20025;-58
2022/02/12 12:08:01;;;;;;;5.50;2.47;;;;;;;;;;5074173;28;20025;-57
2022/02/12 12:10:28;;;;;;;5.38;2.40;;;;;;;;;;5073565;28;20070;-52
2022/02/12 12:13:20;;;;;;;6.22;2.50;;;;;;;;;;5073538;28;20050;-55
2022/02/12 12:15:50;;;;;;;4.25;2.47;;;;;;;;;;5069469;28;20055;-58
2022/02/12 12:18:16;;;;;;;6.80;3.08;;;;;;;;;;5072771;28;20159;-58
2022/02/12 12:20:43;;;;;;;4.00;2.05;;;;;;;;;;5073210;28;20103;-58
2022/02/12 12:23:12;;;;;;;4.57;2.35;;;;;;;;;;5073018;28;20040;-58
2022/02/12 12:26:02;;;;;;;4.72;1.95;;;;;;;;;;5073816;28;20029;-58
2022/02/12 12:28:30;;;;;;;4.32;1.85;;;;;;;;;;5074413;28;20031;-58
2022/02/12 12:30:56;;;;;;;3.65;2.10;;;;;;;;;;5072774;28;20311;-58
2022/02/12 12:33:26;;;;;;;3.85;1.85;;;;;;;;;;5072225;28;20116;-58
2022/02/12 12:35:52;;;;;;;6.93;1.95;;;;;;;;;;5073358;28;20396;-58
2022/02/12 12:38:18;;;;;;;4.07;1.98;;;;;;;;;;5072342;28;20157;-58
2022/02/12 12:40:44;;;;;;;3.88;1.75;;;;;;;;;;5073304;28;20525;-58
2022/02/12 12:43:10;;;;;;;5.05;2.03;;;;;;;;;;5072708;28;20078;-58
2022/02/12 12:45:40;;;;;;;3.95;1.80;;;;;;;;;;5072620;28;20477;-59
2022/02/12 12:48:06;;;;;;;1.83;1.50;;;;;;;;;;5071130;28;20036;-58
2022/02/12 12:50:36;;;;;;;4.68;2.40;;;;;;;;;;5072997;28;20032;-58
2022/02/12 12:53:03;;;;;;;3.08;1.40;;;;;;;;;;5054794;28;20495;-59
2022/02/12 12:55:29;;;;;;;4.57;1.98;;;;;;;;;;5072418;28;20025;-58
2022/02/12 12:57:56;;;;;;;4.22;1.60;;;;;;;;;;5072949;28;20017;-57
2022/02/12 13:00:23;;;;;;;5.07;1.77;;;;;;;;;;5072080;28;20019;-61
2022/02/12 13:02:56;;;;;;;5.30;1.80;;;;;;;;;;5069004;28;20428;-57
2022/02/12 13:05:25;;;;;;;1.67;1.20;;;;;;;;;;5072174;28;20021;-57
2022/02/12 13:07:51;;;;;;;3.63;1.10;;;;;;;;;;5072245;28;20493;-55
2022/02/12 13:10:18;;;;;;;3.15;1.45;;;;;;;;;;5071787;28;20035;-52
2022/02/12 13:12:44;;;;;;;3.10;1.40;;;;;;;;;;5072740;28;20107;-51
2022/02/12 13:15:16;;;;;;;6.97;1.40;;;;;;;;;;5071835;28;20062;-50
2022/02/12 13:17:51;;;;;;;7.28;1.70;;;;;;;;;;5072039;28;20423;-57
2022/02/12 13:20:18;;;;;;;4.40;1.73;;;;;;;;;;5071305;28;20543;-55
2022/02/12 13:22:59;;;;;;;7.05;1.63;;;;;;;;;;5072786;28;20037;-58
2022/02/12 13:25:26;;;;;;;6.13;1.52;;;;;;;;;;5070757;28;20018;-53
2022/02/12 13:27:52;;;;;;;4.47;1.60;;;;;;;;;;5072110;28;20036;-54
2022/02/12 13:30:29;;;;;;;4.75;1.40;;;;;;;;;;5071707;28;20033;-55
2022/02/12 13:32:55;;;;;;;3.55;1.52;;;;;;;;;;5070785;28;20036;-51
2022/02/12 13:35:22;;;;;;;4.47;1.77;;;;;;;;;;5071197;28;20035;-50
2022/02/12 13:37:51;;;;;;;2.08;1.10;;;;;;;;;;5071604;28;20119;-54
2022/02/12 13:40:25;;;;;;;3.55;1.10;;;;;;;;;;5071560;28;20024;-53
2022/02/12 13:42:58;;;;;;;4.38;1.17;;;;;;;;;;5072275;28;20035;-54
2022/02/12 13:45:24;;;;;;;4.65;1.20;;;;;;;;;;5071562;28;20029;-50
2022/02/12 13:47:56;;;;;;;10.55;2.03;;;;;;;;;;5072538;28;20047;-53
2022/02/12 13:50:23;;;;;;;7.57;1.48;;;;;;;;;;5071170;28;20047;-53
2022/02/12 13:52:54;;;;;;;2.55;1.40;;;;;;;;;;5072396;28;20504;-55
2022/02/12 13:55:20;;;;;;;4.10;1.17;;;;;;;;;;5071625;28;20032;-51
2022/02/12 13:57:46;;;;;;;4.50;1.50;;;;;;;;;;5072388;28;20060;-53
2022/02/12 14:00:13;;;;;;;2.30;1.58;;;;;;;;;;5070792;28;20052;-50
2022/02/12 14:02:46;;;;;;;3.92;1.20;;;;;;;;;;5069845;28;20036;-55
2022/02/12 14:05:12;;;;;;;3.55;0.85;;;;;;;;;;5070410;28;20029;-49
2022/02/12 14:07:38;;;;;;;2.85;1.05;;;;;;;;;;5058670;28;20024;-48
2022/02/12 14:10:06;;;;;;;1.63;0.80;;;;;;;;;;5058815;28;20493;-48
2022/02/12 14:12:32;;;;;;;3.75;1.40;;;;;;;;;;5072338;28;20020;-50
2022/02/12 14:14:58;;;;;;;2.42;1.20;;;;;;;;;;5071782;28;20047;-52
2022/02/12 14:17:24;;;;;;;2.35;1.05;;;;;;;;;;5071224;28;20028;-49
2022/02/12 14:19:50;;;;;;;4.32;1.17;;;;;;;;;;5071742;28;20029;-50
2022/02/12 14:22:16;;;;;;;4.15;1.08;;;;;;;;;;5071274;28;20028;-51
2022/02/12 14:24:42;;;;;;;2.53;1.13;;;;;;;;;;5071834;28;20119;-50
2022/02/12 14:27:08;;;;;;;3.58;1.10;;;;;;;;;;5071341;28;20024;-52
2022/02/12 14:29:34;;;;;;;3.47;1.13;;;;;;;;;;5071761;28;20069;-49
2022/02/12 14:32:02;;;;;;;2.90;1.00;;;;;;;;;;5071877;28;20024;-52
2022/02/12 14:34:31;;;;;;;4.22;0.90;;;;;;;;;;5071107;28;20024;-49
2022/02/12 14:36:57;;;;;;;3.17;1.27;;;;;;;;;;5056929;28;20379;-49
2022/02/12 14:39:23;;;;;;;3.33;1.52;;;;;;;;;;5073912;28;20032;-50
2022/02/12 14:41:49;;;;;;;2.45;1.33;;;;;;;;;;5092011;28;20032;-48
2022/02/12 14:44:15;;;;;;;1.88;0.90;;;;;;;;;;5091352;28;20028;-52
2022/02/12 14:46:43;;;;;;;3.80;1.10;;;;;;;;;;5092077;28;20354;-49
2022/02/12 14:49:09;;;;;;;3.40;0.90;;;;;;;;;;5090920;28;20530;-49
2022/02/12 14:51:36;;;;;;;6.32;1.80;;;;;;;;;;5091858;28;20024;-49